Teretulemast minu uuele ilmaprognooside lehele
Praegu on leht veel arendamise järgus: tõlked, linnade lisamine, menüüde korrastamine jne.
Endine leht vt. menüüs! / Andke teada probleemidest(nt. koha valik - kas töötab jne.) menüüs: Muu kraam - Saada kiri.
Tuul Alates: 27-07-2021 20:16 Kuni: 28-07-2021 20:16 hoiatus: Tuul Tase: Kollane info button
28.07 hommikul tugevneb alates lõunavetest edelatuul 13, puhanguti 18 m/s. Laine kõrgus 1-2 m.Jul 28 in the morning from southern waters increasing southwest wind 13, in gusts 18 m/s. Wave height 1-2 m. 



/home/edgarnuum/domains/hotserv.eq.ee/public_html/nautical/metar/metarDisplay.php

Nearby METAR Reports

   
EEKE - Kuressaare, Estonia
Distance from station: SE 3 km
Uuendatud: 27-07-2021 18:20
Kerge vihm, Few Clouds  
Kerge vihm, Few Clouds  
   Tuul: SE 5.1 m/s
Tuul: SE 5.1 m/s
Temperatuur: 23°C
Kastepunkt: 18°C
Niiskus: 74%
Baromeeter: 1011 hPa
Pilvisus: Few Clouds
Nähtavus: More than 10 km
Cloud details: Few Clouds 1219.2 m
EEKE 271520Z 14010KT 9999 -RA FEW040 23/18 Q1011
EEKA - Kardla, Estonia
Distance from station: NNE 84 km
Uuendatud: 27-07-2021 18:20
Clear  
Clear  
   Tuul: South 2.1 m/s
Tuul: South 2.1 m/s
Temperatuur: 24°C
Kastepunkt: 17°C
Niiskus: 65%
Baromeeter: 1011 hPa
Nähtavus: More than 10 km
Cloud details: Clear m
EEKA 271520Z 19004KT 150V230 CAVOK 24/17 Q1011
EEEI - Harjumaa Amari, Estonia
Distance from station: NE 151 km
Uuendatud: 27-07-2021 16:50
NOT Current
Clear  
Clear  
   Tuul: ESE 5.1 m/s
Tuul: ESE 5.1 m/s
Temperatuur: 31°C
Kastepunkt: 12°C
Niiskus: 31%
Baromeeter: 1013 hPa
Nähtavus: More than 10 km
Cloud details: Clear m
EEEI 271350Z 12010KT 080V160 CAVOK 31/12 Q1013 NOSIG
EETN - Tallinn L. Meri, Estonia
Distance from station: NE 187 km
Uuendatud: 27-07-2021 18:20
Clear  
Clear  
   Tuul: ESE 5.1 m/s
Tuul: ESE 5.1 m/s
Temperatuur: 29°C
Kastepunkt: 13°C
Niiskus: 37%
Baromeeter: 1013 hPa
Nähtavus: More than 10 km
Cloud details: Clear m
EETN 271520Z 11010KT CAVOK 29/13 Q1013 NOSIG
EETU - Tartu, Estonia
Distance from station: E 245 km
Uuendatud: 27-07-2021 18:20
Osaliselt pilves  
Osaliselt pilves  
   Tuul: South 4.6 m/s
Tuul: South 4.6 m/s
Temperatuur: 26°C
Kastepunkt: 14°C
Niiskus: 48%
Baromeeter: 1013 hPa
Pilvisus: Partly Cloudy
Nähtavus: More than 10 km
Cloud details: Osaliselt pilves 1889.8 m
EETU 271520Z AUTO 17009KT 140V210 9999 SCT062/// 26/14 Q1013
 

Script developed by  Saratoga-weather.org Adapted for the template by  Weerstation Leuven